createdAt,value
2023-01-30T00:00:13.036Z,14.60
2023-01-30T00:02:41.899Z,17.35
2023-01-30T00:05:10.245Z,15.07
2023-01-30T00:07:38.501Z,15.77
2023-01-30T00:10:07.095Z,15.10
2023-01-30T00:12:35.692Z,14.38
2023-01-30T00:15:04.801Z,13.98
2023-01-30T00:17:32.969Z,14.57
2023-01-30T00:20:01.263Z,15.60
2023-01-30T00:22:30.347Z,16.45
2023-01-30T00:24:58.416Z,14.23
2023-01-30T00:27:26.521Z,16.55
2023-01-30T00:30:02.837Z,15.65
2023-01-30T00:32:32.565Z,15.55
2023-01-30T00:35:00.771Z,14.80
2023-01-30T00:37:29.553Z,15.57
2023-01-30T00:39:58.916Z,17.65
2023-01-30T00:42:47.548Z,15.27
2023-01-30T00:45:34.297Z,15.98
2023-01-30T00:48:03.929Z,14.27
2023-01-30T00:50:42.648Z,13.15
2023-01-30T00:53:16.440Z,16.27
2023-01-30T00:55:45.738Z,16.70
2023-01-30T00:58:14.144Z,17.50
2023-01-30T01:00:42.548Z,15.98
2023-01-30T01:03:10.761Z,16.85
2023-01-30T01:05:38.698Z,13.32
2023-01-30T01:08:07.765Z,12.45
2023-01-30T01:10:36.033Z,14.50
2023-01-30T01:13:06.653Z,14.93
2023-01-30T01:15:35.495Z,13.70
2023-01-30T01:18:03.780Z,15.57
2023-01-30T01:20:32.567Z,12.00
2023-01-30T01:23:00.996Z,15.85
2023-01-30T01:25:29.213Z,14.63
2023-01-30T01:27:57.213Z,16.50
2023-01-30T01:30:25.399Z,15.30
2023-01-30T01:32:53.388Z,15.40
2023-01-30T01:35:21.426Z,14.60
2023-01-30T01:37:54.746Z,13.48
2023-01-30T01:40:42.340Z,15.20
2023-01-30T01:43:22.724Z,14.85
2023-01-30T01:46:18.507Z,14.55
2023-01-30T01:48:53.800Z,14.50
2023-01-30T01:51:42.705Z,15.95
2023-01-30T01:54:18.626Z,13.35
2023-01-30T01:56:48.696Z,13.02
2023-01-30T01:59:53.513Z,15.27
2023-01-30T02:02:22.038Z,15.07
2023-01-30T02:05:03.740Z,13.75
2023-01-30T02:07:55.027Z,14.13
2023-01-30T02:10:52.023Z,14.10
2023-01-30T02:13:20.200Z,14.00
2023-01-30T02:15:50.395Z,14.75
2023-01-30T02:18:19.551Z,11.90
2023-01-30T02:21:48.710Z,13.90
2023-01-30T02:25:08.293Z,14.55
2023-01-30T02:27:59.973Z,13.07
2023-01-30T02:30:34.444Z,13.45
2023-01-30T02:33:19.624Z,12.48
2023-01-30T02:35:57.379Z,14.98
2023-01-30T02:38:39.917Z,12.02
2023-01-30T02:41:20.142Z,10.38
2023-01-30T02:44:11.772Z,16.58
2023-01-30T02:47:04.136Z,14.15
2023-01-30T02:49:56.285Z,14.32
2023-01-30T02:52:27.777Z,14.00
2023-01-30T02:54:55.818Z,12.82
2023-01-30T02:57:26.524Z,12.80
2023-01-30T03:00:04.416Z,13.75
2023-01-30T03:03:15.776Z,13.50
2023-01-30T03:06:11.582Z,15.20
2023-01-30T03:08:51.392Z,12.85
2023-01-30T03:11:25.081Z,14.35
2023-01-30T03:14:02.720Z,11.32
2023-01-30T03:16:41.076Z,15.23
2023-01-30T03:19:13.943Z,14.13
2023-01-30T03:21:46.169Z,16.17
2023-01-30T03:24:15.028Z,14.07
2023-01-30T03:26:59.954Z,13.95
2023-01-30T03:29:28.223Z,12.95
2023-01-30T03:31:56.494Z,11.98
2023-01-30T03:34:24.766Z,13.18
2023-01-30T03:36:52.794Z,12.00
2023-01-30T03:39:21.571Z,11.05
2023-01-30T03:41:50.363Z,12.82
2023-01-30T03:44:19.119Z,12.63
2023-01-30T03:46:47.160Z,13.05
2023-01-30T03:49:15.388Z,10.57
2023-01-30T03:51:43.299Z,14.77
2023-01-30T03:54:11.215Z,13.00
2023-01-30T03:56:39.743Z,13.27
2023-01-30T03:59:08.715Z,12.20
2023-01-30T04:01:42.578Z,13.43
2023-01-30T04:04:11.457Z,12.07
2023-01-30T04:06:39.398Z,12.80
2023-01-30T04:09:07.876Z,11.77
2023-01-30T04:11:43.744Z,14.50
2023-01-30T04:14:12.590Z,11.43
2023-01-30T04:17:06.836Z,13.25
2023-01-30T04:19:58.208Z,13.20
2023-01-30T04:22:26.991Z,11.35
2023-01-30T04:24:54.934Z,11.98
2023-01-30T04:27:22.993Z,12.55
2023-01-30T04:30:11.788Z,11.10
2023-01-30T04:32:40.711Z,13.02
2023-01-30T04:35:10.867Z,10.25
2023-01-30T04:37:40.025Z,11.10
2023-01-30T04:40:10.660Z,11.95
2023-01-30T04:42:39.047Z,12.68
2023-01-30T04:45:30.479Z,12.73
2023-01-30T04:47:58.685Z,12.45
2023-01-30T04:50:26.968Z,10.70
2023-01-30T04:52:55.023Z,13.52
2023-01-30T04:55:22.925Z,11.65
2023-01-30T04:57:50.857Z,13.25
2023-01-30T05:00:19.496Z,12.20
2023-01-30T05:02:55.864Z,11.52
2023-01-30T05:05:25.453Z,11.57
2023-01-30T05:07:54.348Z,12.85
2023-01-30T05:10:22.507Z,11.63
2023-01-30T05:12:51.035Z,11.25
2023-01-30T05:15:19.423Z,10.70
2023-01-30T05:17:47.662Z,12.10
2023-01-30T05:20:16.274Z,10.93
2023-01-30T05:22:44.271Z,13.35
2023-01-30T05:25:12.360Z,11.13
2023-01-30T05:27:40.687Z,10.93
2023-01-30T05:30:09.868Z,11.13
2023-01-30T05:32:37.792Z,11.57
2023-01-30T05:35:06.855Z,9.90
2023-01-30T05:37:34.847Z,10.55
2023-01-30T05:40:02.975Z,9.18
2023-01-30T05:42:31.833Z,8.82
2023-01-30T05:44:59.778Z,9.70
2023-01-30T05:47:27.849Z,11.70
2023-01-30T05:49:56.110Z,11.05
2023-01-30T05:52:23.986Z,11.02
2023-01-30T05:54:51.983Z,11.02
2023-01-30T05:57:20.281Z,9.15
2023-01-30T05:59:48.518Z,10.43
2023-01-30T06:02:16.501Z,12.57
2023-01-30T06:04:44.713Z,11.65
2023-01-30T06:07:14.237Z,10.95
2023-01-30T06:09:42.375Z,10.15
2023-01-30T06:12:10.769Z,8.93
2023-01-30T06:14:38.964Z,9.77
2023-01-30T06:17:07.538Z,9.88
2023-01-30T06:19:35.851Z,10.50
2023-01-30T06:22:03.812Z,10.32
2023-01-30T06:24:31.840Z,10.65
2023-01-30T06:27:00.595Z,10.07
2023-01-30T06:29:28.763Z,12.02
2023-01-30T06:31:56.757Z,14.93
2023-01-30T06:34:25.155Z,15.45
2023-01-30T06:36:53.174Z,13.90
2023-01-30T06:39:21.180Z,13.65
2023-01-30T06:41:49.591Z,14.93
2023-01-30T06:44:18.377Z,13.40
2023-01-30T06:46:46.359Z,13.05
2023-01-30T06:49:14.559Z,12.50
2023-01-30T06:51:42.532Z,14.13
2023-01-30T06:54:10.562Z,12.57
2023-01-30T06:56:38.712Z,12.30
2023-01-30T06:59:06.701Z,10.93
2023-01-30T07:01:34.791Z,12.38
2023-01-30T07:04:03.957Z,12.65
2023-01-30T07:06:32.332Z,13.07
2023-01-30T07:09:00.268Z,14.15
2023-01-30T07:11:29.202Z,11.95
2023-01-30T07:13:58.054Z,12.85
2023-01-30T07:16:29.888Z,11.57
2023-01-30T07:18:59.008Z,12.38
2023-01-30T07:21:27.729Z,12.65
2023-01-30T07:23:55.865Z,12.68
2023-01-30T07:26:25.230Z,11.55
2023-01-30T07:28:53.390Z,13.30
2023-01-30T07:31:21.835Z,11.85
2023-01-30T07:33:50.232Z,15.32
2023-01-30T07:36:18.189Z,11.48
2023-01-30T07:38:49.816Z,12.23
2023-01-30T07:41:18.053Z,11.63
2023-01-30T07:43:46.282Z,12.48
2023-01-30T07:46:14.393Z,11.02
2023-01-30T07:48:45.790Z,11.02
2023-01-30T07:51:14.034Z,12.90
2023-01-30T07:53:42.098Z,11.40
2023-01-30T07:56:14.471Z,11.98
2023-01-30T07:58:42.419Z,13.38
2023-01-30T08:01:10.539Z,9.82
2023-01-30T08:03:38.681Z,10.30
2023-01-30T08:06:07.783Z,13.85
2023-01-30T08:08:36.098Z,11.13
2023-01-30T08:11:04.661Z,11.73
2023-01-30T08:13:35.774Z,12.70
2023-01-30T08:16:06.680Z,11.90
2023-01-30T08:18:35.925Z,12.43
2023-01-30T08:21:07.265Z,11.18
2023-01-30T08:23:38.629Z,12.40
2023-01-30T08:28:34.770Z,13.88
2023-01-30T08:31:02.937Z,12.65
2023-01-30T08:33:30.985Z,12.40
2023-01-30T08:36:00.626Z,10.63
2023-01-30T08:38:28.831Z,8.63
2023-01-30T08:40:58.118Z,11.40
2023-01-30T08:43:26.972Z,11.73
2023-01-30T08:45:57.146Z,10.95
2023-01-30T08:48:25.502Z,11.93
2023-01-30T08:50:55.502Z,10.77
2023-01-30T08:53:24.015Z,9.70
2023-01-30T08:55:53.725Z,12.05
2023-01-30T08:58:22.724Z,11.32
2023-01-30T09:00:51.008Z,9.93
2023-01-30T09:03:19.936Z,9.40
2023-01-30T09:05:48.531Z,11.85
2023-01-30T09:08:16.862Z,9.70
2023-01-30T09:10:44.995Z,12.80
2023-01-30T09:13:13.254Z,10.90
2023-01-30T09:15:45.648Z,9.70
2023-01-30T09:18:13.791Z,9.48
2023-01-30T09:20:41.767Z,10.05
2023-01-30T09:23:09.861Z,8.35
2023-01-30T09:25:38.252Z,10.65
2023-01-30T09:28:06.315Z,9.93
2023-01-30T09:30:34.923Z,11.30
2023-01-30T09:33:04.107Z,10.95
2023-01-30T09:35:32.467Z,8.90
2023-01-30T09:38:01.639Z,9.40
2023-01-30T09:40:32.916Z,8.63
2023-01-30T09:43:48.761Z,9.32
2023-01-30T09:46:29.460Z,9.07
2023-01-30T09:49:26.691Z,9.52
2023-01-30T09:52:09.879Z,10.75
2023-01-30T09:54:43.307Z,10.15
2023-01-30T09:57:22.686Z,9.32
2023-01-30T09:59:58.453Z,12.55
2023-01-30T10:02:41.814Z,12.43
2023-01-30T10:05:10.542Z,9.60
2023-01-30T10:08:14.960Z,9.68
2023-01-30T10:11:10.454Z,12.63
2023-01-30T10:14:08.287Z,10.45
2023-01-30T10:17:45.536Z,9.68
2023-01-30T10:20:32.309Z,10.45
2023-01-30T10:23:38.223Z,9.68
2023-01-30T10:26:23.219Z,9.60
2023-01-30T10:29:07.423Z,14.10
2023-01-30T10:31:56.862Z,10.43
2023-01-30T10:34:37.172Z,10.70
2023-01-30T10:37:33.175Z,9.07
2023-01-30T10:40:43.047Z,11.10
2023-01-30T10:43:37.286Z,8.07
2023-01-30T10:46:56.974Z,9.77
2023-01-30T10:49:44.595Z,11.63
2023-01-30T10:52:38.570Z,11.57
2023-01-30T10:55:37.589Z,10.18
2023-01-30T10:58:26.613Z,9.77
2023-01-30T11:01:53.774Z,12.90
2023-01-30T11:04:42.580Z,12.90
2023-01-30T11:07:12.034Z,10.00
2023-01-30T11:09:46.685Z,12.27
2023-01-30T11:12:16.078Z,10.60
2023-01-30T11:15:16.725Z,13.63
2023-01-30T11:17:46.073Z,13.00
2023-01-30T11:20:24.665Z,11.95
2023-01-30T11:23:07.650Z,14.30
2023-01-30T11:26:10.472Z,10.07
2023-01-30T11:28:48.660Z,11.55
2023-01-30T11:31:40.508Z,12.32
2023-01-30T11:34:16.999Z,10.93
2023-01-30T11:36:48.675Z,12.95
2023-01-30T11:42:03.807Z,11.05
2023-01-30T11:44:40.610Z,12.52
2023-01-30T11:47:27.761Z,10.15
2023-01-30T11:50:07.538Z,11.98
2023-01-30T11:52:50.557Z,14.32
2023-01-30T11:55:21.000Z,11.73
2023-01-30T11:57:56.313Z,12.88
2023-01-30T12:00:38.954Z,10.27
2023-01-30T12:03:18.271Z,11.55
2023-01-30T12:05:48.564Z,11.32
2023-01-30T12:08:31.184Z,9.77
2023-01-30T12:11:07.830Z,10.32
2023-01-30T12:13:43.673Z,10.23
2023-01-30T12:16:25.667Z,11.52
2023-01-30T12:19:19.156Z,10.88
2023-01-30T12:21:59.316Z,12.05
2023-01-30T12:25:27.474Z,11.13
2023-01-30T12:28:20.307Z,11.77
2023-01-30T12:31:24.853Z,13.63
2023-01-30T12:33:55.749Z,11.55
2023-01-30T12:36:38.825Z,11.52
2023-01-30T12:39:47.961Z,11.15
2023-01-30T12:42:48.525Z,9.82
2023-01-30T12:45:41.326Z,9.25
2023-01-30T12:48:13.110Z,9.25
2023-01-30T12:51:04.008Z,11.00
2023-01-30T12:53:50.681Z,10.13
2023-01-30T12:56:41.398Z,11.10
2023-01-30T12:59:21.646Z,11.02
2023-01-30T13:02:29.727Z,9.73
2023-01-30T13:05:33.802Z,11.32
2023-01-30T13:08:34.122Z,10.93
2023-01-30T13:11:41.561Z,9.88
2023-01-30T13:14:21.762Z,10.93
2023-01-30T13:17:20.698Z,13.02
2023-01-30T13:20:18.069Z,11.40
2023-01-30T13:23:13.231Z,11.10
2023-01-30T13:26:06.016Z,11.85
2023-01-30T13:28:44.729Z,8.98
2023-01-30T13:31:18.941Z,9.88
2023-01-30T13:33:51.306Z,12.73
2023-01-30T13:36:44.995Z,10.35
2023-01-30T13:39:54.668Z,9.10
2023-01-30T13:42:26.540Z,11.90
2023-01-30T13:44:56.360Z,15.18
2023-01-30T13:47:55.072Z,9.60
2023-01-30T13:51:06.151Z,11.40
2023-01-30T13:54:13.069Z,9.77
2023-01-30T13:57:38.215Z,10.27
2023-01-30T14:00:35.313Z,11.02
2023-01-30T14:03:06.924Z,12.32
2023-01-30T14:06:01.269Z,12.30
2023-01-30T14:08:48.656Z,10.43
2023-01-30T14:11:40.663Z,11.02
2023-01-30T14:14:40.835Z,11.85
2023-01-30T14:17:16.697Z,10.88
2023-01-30T14:19:57.393Z,12.05
2023-01-30T14:22:25.887Z,12.63
2023-01-30T14:25:30.878Z,10.68
2023-01-30T14:28:01.977Z,10.15
2023-01-30T14:30:48.724Z,9.85
2023-01-30T14:33:22.656Z,12.18
2023-01-30T14:36:03.224Z,11.20
2023-01-30T14:38:37.576Z,10.52
2023-01-30T14:41:05.842Z,12.88
2023-01-30T14:43:43.108Z,11.18
2023-01-30T14:46:20.568Z,11.65
2023-01-30T14:48:53.543Z,8.73
2023-01-30T14:51:48.256Z,11.93
2023-01-30T14:54:16.893Z,11.13
2023-01-30T14:57:01.118Z,12.32
2023-01-30T15:00:03.219Z,10.50
2023-01-30T15:02:49.196Z,10.50
2023-01-30T15:05:34.947Z,11.63
2023-01-30T15:08:17.111Z,8.90
2023-01-30T15:13:57.711Z,10.02
2023-01-30T15:17:34.679Z,11.00
2023-01-30T15:20:08.689Z,11.50
2023-01-30T15:23:20.856Z,9.82
2023-01-30T15:26:10.228Z,11.75
2023-01-30T15:28:56.599Z,11.90
2023-01-30T15:31:25.201Z,10.88
2023-01-30T15:33:57.155Z,12.55
2023-01-30T15:36:36.668Z,12.82
2023-01-30T15:39:26.548Z,11.10
2023-01-30T15:42:08.499Z,12.02
2023-01-30T15:47:16.851Z,11.13
2023-01-30T15:50:01.892Z,10.73
2023-01-30T15:52:52.010Z,10.05
2023-01-30T15:55:30.509Z,10.27
2023-01-30T15:58:19.395Z,10.98
2023-01-30T16:00:55.873Z,11.85
2023-01-30T16:03:35.826Z,10.73
2023-01-30T16:06:05.366Z,11.45
2023-01-30T16:08:37.209Z,11.20
2023-01-30T16:11:05.786Z,9.48
2023-01-30T16:13:35.801Z,9.48
2023-01-30T16:16:19.140Z,10.75
2023-01-30T16:18:55.936Z,10.95
2023-01-30T16:21:50.720Z,10.73
2023-01-30T16:24:25.255Z,10.25
2023-01-30T16:27:07.174Z,11.30
2023-01-30T16:29:53.477Z,11.68
2023-01-30T16:32:30.925Z,12.52
2023-01-30T16:35:26.883Z,9.95
2023-01-30T16:38:00.320Z,14.23
2023-01-30T16:40:45.381Z,12.43
2023-01-30T16:43:23.639Z,11.20
2023-01-30T16:46:27.383Z,13.20
2023-01-30T16:49:06.580Z,13.57
2023-01-30T16:51:37.667Z,13.32
2023-01-30T16:54:16.592Z,12.73
2023-01-30T16:56:51.688Z,10.85
2023-01-30T16:59:28.391Z,12.45
2023-01-30T17:02:00.283Z,12.13
2023-01-30T17:04:35.920Z,12.13
2023-01-30T17:07:05.496Z,14.05
2023-01-30T17:09:47.785Z,12.45
2023-01-30T17:12:30.767Z,12.75
2023-01-30T17:15:15.726Z,14.25
2023-01-30T17:17:45.738Z,14.85
2023-01-30T17:20:20.605Z,14.73
2023-01-30T17:22:58.234Z,14.23
2023-01-30T17:25:39.713Z,13.80
2023-01-30T17:28:21.554Z,10.45
2023-01-30T17:33:21.521Z,10.33
2023-01-30T17:35:50.837Z,11.40
2023-01-30T17:38:20.592Z,12.45
2023-01-30T17:40:50.438Z,11.70
2023-01-30T17:43:19.389Z,11.90
2023-01-30T17:45:50.853Z,10.73
2023-01-30T17:48:19.721Z,11.60
2023-01-30T17:50:48.641Z,11.57
2023-01-30T17:53:17.585Z,12.82
2023-01-30T17:55:46.896Z,14.15
2023-01-30T17:58:18.351Z,11.50
2023-01-30T18:00:47.092Z,13.48
2023-01-30T18:03:15.597Z,10.75
2023-01-30T18:05:44.606Z,13.27
2023-01-30T18:08:14.492Z,12.15
2023-01-30T18:10:43.189Z,12.55
2023-01-30T18:13:11.876Z,12.75
2023-01-30T18:15:41.093Z,12.57
2023-01-30T18:18:16.584Z,11.00
2023-01-30T18:20:46.314Z,13.50
2023-01-30T18:23:16.762Z,11.60
2023-01-30T18:25:45.566Z,13.70
2023-01-30T18:28:14.108Z,13.18
2023-01-30T18:30:42.747Z,16.30
2023-01-30T18:33:12.215Z,12.55
2023-01-30T18:35:42.297Z,16.20
2023-01-30T18:38:11.906Z,12.30
2023-01-30T18:40:41.580Z,12.95
2023-01-30T18:43:10.709Z,12.93
2023-01-30T18:45:39.749Z,12.70
2023-01-30T18:48:09.344Z,12.15
2023-01-30T18:50:42.182Z,10.82
2023-01-30T18:53:12.616Z,12.35
2023-01-30T18:55:51.014Z,12.32
2023-01-30T18:58:26.016Z,11.82
2023-01-30T19:00:58.928Z,13.40
2023-01-30T19:03:29.257Z,12.20
2023-01-30T19:06:02.677Z,12.05
2023-01-30T19:08:32.608Z,13.05
2023-01-30T19:11:41.976Z,13.05
2023-01-30T19:14:12.187Z,12.23
2023-01-30T19:16:42.549Z,12.73
2023-01-30T19:19:12.054Z,12.68
2023-01-30T19:21:42.546Z,13.02
2023-01-30T19:24:17.173Z,11.65
2023-01-30T19:26:48.444Z,12.00
2023-01-30T19:29:19.554Z,11.90
2023-01-30T19:31:49.781Z,12.50
2023-01-30T19:34:20.905Z,10.48
2023-01-30T19:36:50.577Z,12.30
2023-01-30T19:39:20.111Z,12.25
2023-01-30T19:41:49.471Z,12.50
2023-01-30T19:44:19.075Z,9.90
2023-01-30T19:46:50.212Z,12.85
2023-01-30T19:49:20.662Z,8.40
2023-01-30T19:51:52.700Z,9.45
2023-01-30T19:54:23.782Z,11.20
2023-01-30T19:56:53.572Z,9.50
2023-01-30T19:59:23.959Z,10.95
2023-01-30T20:01:55.181Z,11.68
2023-01-30T20:04:24.272Z,11.73
2023-01-30T20:06:52.475Z,11.77
2023-01-30T20:09:30.560Z,9.98
2023-01-30T20:12:05.512Z,9.98
2023-01-30T20:14:38.965Z,9.90
2023-01-30T20:17:08.351Z,10.30
2023-01-30T20:19:37.899Z,11.52
2023-01-30T20:22:09.234Z,10.77
2023-01-30T20:24:38.973Z,10.27
2023-01-30T20:27:11.056Z,9.68
2023-01-30T20:29:40.299Z,10.57
2023-01-30T20:32:09.473Z,11.23
2023-01-30T20:34:38.606Z,9.55
2023-01-30T20:37:06.956Z,10.50
2023-01-30T20:39:35.427Z,10.80
2023-01-30T20:42:04.531Z,10.25
2023-01-30T20:44:36.190Z,10.55
2023-01-30T20:47:04.637Z,11.30
2023-01-30T20:49:33.195Z,12.13
2023-01-30T20:52:01.567Z,11.48
2023-01-30T20:54:29.723Z,11.43
2023-01-30T20:56:58.570Z,11.70
2023-01-30T20:59:28.935Z,11.15
2023-01-30T21:01:57.420Z,10.10
2023-01-30T21:04:29.309Z,9.93
2023-01-30T21:06:57.793Z,10.10
2023-01-30T21:09:26.227Z,10.88
2023-01-30T21:11:55.662Z,12.05
2023-01-30T21:14:26.526Z,10.55
2023-01-30T21:16:55.649Z,11.35
2023-01-30T21:19:24.276Z,9.85
2023-01-30T21:21:55.329Z,10.82
2023-01-30T21:24:28.104Z,10.55
2023-01-30T21:26:57.407Z,10.57
2023-01-30T21:29:28.751Z,9.77
2023-01-30T21:31:58.759Z,7.80
2023-01-30T21:34:27.129Z,9.38
2023-01-30T21:37:15.762Z,10.98
2023-01-30T21:40:04.304Z,11.25
2023-01-30T21:42:51.213Z,9.75
2023-01-30T21:45:21.356Z,10.65
2023-01-30T21:47:54.380Z,10.75
2023-01-30T21:50:22.685Z,10.05
2023-01-30T21:52:50.681Z,10.27
2023-01-30T21:55:19.213Z,9.55
2023-01-30T21:57:47.541Z,11.77
2023-01-30T22:00:15.917Z,9.50
2023-01-30T22:02:44.423Z,10.60
2023-01-30T22:05:13.098Z,9.70
2023-01-30T22:07:41.339Z,11.32
2023-01-30T22:10:10.571Z,9.27
2023-01-30T22:12:40.339Z,10.50
2023-01-30T22:15:10.079Z,8.95
2023-01-30T22:17:38.658Z,9.82
2023-01-30T22:20:10.407Z,9.82
2023-01-30T22:25:08.084Z,10.07
2023-01-30T22:27:38.508Z,10.00
2023-01-30T22:30:07.918Z,10.07
2023-01-30T22:32:38.335Z,10.38
2023-01-30T22:35:09.825Z,9.43
2023-01-30T22:37:38.724Z,10.15
2023-01-30T22:40:08.399Z,10.18
2023-01-30T22:42:37.374Z,9.88
2023-01-30T22:45:06.556Z,10.73
2023-01-30T22:47:34.671Z,9.70
2023-01-30T22:50:04.539Z,10.30
2023-01-30T22:52:33.413Z,10.57
2023-01-30T22:55:02.632Z,10.95
2023-01-30T22:57:31.563Z,9.25
2023-01-30T23:00:01.577Z,10.73
2023-01-30T23:02:31.452Z,10.57
2023-01-30T23:05:03.907Z,9.57
2023-01-30T23:07:34.788Z,11.15
2023-01-30T23:10:04.538Z,9.67
2023-01-30T23:12:50.939Z,8.93
2023-01-30T23:15:20.615Z,9.43
2023-01-30T23:18:07.808Z,10.07
2023-01-30T23:20:36.690Z,9.90
2023-01-30T23:23:07.241Z,11.10
2023-01-30T23:25:41.328Z,9.32
2023-01-30T23:28:09.983Z,8.05
2023-01-30T23:30:39.321Z,9.48
2023-01-30T23:33:07.996Z,8.80
2023-01-30T23:35:36.629Z,9.00
2023-01-30T23:38:16.903Z,8.05
2023-01-30T23:40:49.195Z,9.45
2023-01-30T23:43:17.528Z,9.35
2023-01-30T23:45:45.873Z,9.50
2023-01-30T23:48:14.163Z,9.25
2023-01-30T23:50:42.308Z,8.20
2023-01-30T23:53:10.919Z,8.35
2023-01-30T23:55:38.850Z,8.52
2023-01-30T23:58:06.910Z,8.95
